sensor_id;sensor_type;location;lat;lon;timestamp;temperature;humidity
14095;DHT22;18096;48.142;16.290;2023-06-04T00:01:03;16.40;71.00
14095;DHT22;18096;48.142;16.290;2023-06-04T00:03:30;16.40;71.20
14095;DHT22;18096;48.142;16.290;2023-06-04T00:05:55;16.30;71.60
14095;DHT22;18096;48.142;16.290;2023-06-04T00:08:21;16.30;71.70
14095;DHT22;18096;48.142;16.290;2023-06-04T00:10:47;16.30;71.60
14095;DHT22;18096;48.142;16.290;2023-06-04T00:13:12;16.30;72.00
14095;DHT22;18096;48.142;16.290;2023-06-04T00:15:38;16.20;72.00
14095;DHT22;18096;48.142;16.290;2023-06-04T00:18:04;16.20;72.00
14095;DHT22;18096;48.142;16.290;2023-06-04T00:20:29;16.10;71.80
14095;DHT22;18096;48.142;16.290;2023-06-04T00:22:55;16.10;71.30
14095;DHT22;18096;48.142;16.290;2023-06-04T00:25:20;16.10;71.60
14095;DHT22;18096;48.142;16.290;2023-06-04T00:27:46;16.10;72.00
14095;DHT22;18096;48.142;16.290;2023-06-04T00:30:11;15.90;71.70
14095;DHT22;18096;48.142;16.290;2023-06-04T00:32:37;16.00;72.30
14095;DHT22;18096;48.142;16.290;2023-06-04T00:35:03;16.00;72.40
14095;DHT22;18096;48.142;16.290;2023-06-04T00:37:28;16.00;72.50
14095;DHT22;18096;48.142;16.290;2023-06-04T00:39:54;16.00;72.50
14095;DHT22;18096;48.142;16.290;2023-06-04T00:42:20;15.90;72.80
14095;DHT22;18096;48.142;16.290;2023-06-04T00:44:45;15.80;73.10
14095;DHT22;18096;48.142;16.290;2023-06-04T00:47:11;15.70;73.10
14095;DHT22;18096;48.142;16.290;2023-06-04T00:49:38;15.70;73.10
14095;DHT22;18096;48.142;16.290;2023-06-04T00:52:03;15.70;73.60
14095;DHT22;18096;48.142;16.290;2023-06-04T00:54:29;15.70;73.50
14095;DHT22;18096;48.142;16.290;2023-06-04T00:56:55;15.60;73.80
14095;DHT22;18096;48.142;16.290;2023-06-04T00:59:20;15.60;73.80
14095;DHT22;18096;48.142;16.290;2023-06-04T01:01:51;15.70;74.20
14095;DHT22;18096;48.142;16.290;2023-06-04T01:04:27;15.60;73.90
14095;DHT22;18096;48.142;16.290;2023-06-04T01:06:56;15.60;74.20
14095;DHT22;18096;48.142;16.290;2023-06-04T01:09:24;15.60;74.30
14095;DHT22;18096;48.142;16.290;2023-06-04T01:11:50;15.50;74.50
14095;DHT22;18096;48.142;16.290;2023-06-04T01:14:15;15.50;74.70
14095;DHT22;18096;48.142;16.290;2023-06-04T01:16:46;15.50;74.90
14095;DHT22;18096;48.142;16.290;2023-06-04T01:21:59;15.40;75.20
14095;DHT22;18096;48.142;16.290;2023-06-04T01:24:27;15.40;75.30
14095;DHT22;18096;48.142;16.290;2023-06-04T01:26:53;15.30;75.50
14095;DHT22;18096;48.142;16.290;2023-06-04T01:29:21;15.30;75.70
14095;DHT22;18096;48.142;16.290;2023-06-04T01:31:49;15.30;76.00
14095;DHT22;18096;48.142;16.290;2023-06-04T01:34:15;15.30;76.00
14095;DHT22;18096;48.142;16.290;2023-06-04T01:36:40;15.20;75.60
14095;DHT22;18096;48.142;16.290;2023-06-04T01:39:06;15.20;75.70
14095;DHT22;18096;48.142;16.290;2023-06-04T01:41:31;15.20;75.80
14095;DHT22;18096;48.142;16.290;2023-06-04T01:43:57;15.20;76.10
14095;DHT22;18096;48.142;16.290;2023-06-04T01:46:22;15.20;76.50
14095;DHT22;18096;48.142;16.290;2023-06-04T01:48:48;15.10;76.30
14095;DHT22;18096;48.142;16.290;2023-06-04T01:51:14;15.10;76.50
14095;DHT22;18096;48.142;16.290;2023-06-04T01:53:39;15.10;76.60
14095;DHT22;18096;48.142;16.290;2023-06-04T01:56:05;15.10;76.70
14095;DHT22;18096;48.142;16.290;2023-06-04T01:58:32;15.00;76.80
14095;DHT22;18096;48.142;16.290;2023-06-04T02:00:59;15.00;77.00
14095;DHT22;18096;48.142;16.290;2023-06-04T02:03:25;15.00;77.00
14095;DHT22;18096;48.142;16.290;2023-06-04T02:05:51;15.00;76.90
14095;DHT22;18096;48.142;16.290;2023-06-04T02:08:16;15.00;77.10
14095;DHT22;18096;48.142;16.290;2023-06-04T02:10:47;15.00;77.20
14095;DHT22;18096;48.142;16.290;2023-06-04T02:13:13;14.90;77.10
14095;DHT22;18096;48.142;16.290;2023-06-04T02:15:39;14.90;77.40
14095;DHT22;18096;48.142;16.290;2023-06-04T02:18:14;15.00;77.60
14095;DHT22;18096;48.142;16.290;2023-06-04T02:20:42;14.90;77.60
14095;DHT22;18096;48.142;16.290;2023-06-04T02:23:08;15.00;77.90
14095;DHT22;18096;48.142;16.290;2023-06-04T02:25:34;14.90;77.70
14095;DHT22;18096;48.142;16.290;2023-06-04T02:28:00;14.90;77.40
14095;DHT22;18096;48.142;16.290;2023-06-04T02:30:26;14.90;77.40
14095;DHT22;18096;48.142;16.290;2023-06-04T02:32:51;14.90;77.50
14095;DHT22;18096;48.142;16.290;2023-06-04T02:35:17;14.90;77.40
14095;DHT22;18096;48.142;16.290;2023-06-04T02:37:46;15.00;77.30
14095;DHT22;18096;48.142;16.290;2023-06-04T02:40:11;15.00;76.80
14095;DHT22;18096;48.142;16.290;2023-06-04T02:42:37;14.90;76.80
14095;DHT22;18096;48.142;16.290;2023-06-04T02:45:03;15.00;77.10
14095;DHT22;18096;48.142;16.290;2023-06-04T02:47:28;15.00;77.10
14095;DHT22;18096;48.142;16.290;2023-06-04T02:49:54;15.00;77.20
14095;DHT22;18096;48.142;16.290;2023-06-04T02:52:19;15.00;77.30
14095;DHT22;18096;48.142;16.290;2023-06-04T02:54:47;15.00;77.20
14095;DHT22;18096;48.142;16.290;2023-06-04T02:57:13;15.10;77.30
14095;DHT22;18096;48.142;16.290;2023-06-04T02:59:38;15.10;77.40
14095;DHT22;18096;48.142;16.290;2023-06-04T03:02:04;15.10;77.20
14095;DHT22;18096;48.142;16.290;2023-06-04T03:04:30;15.10;76.90
14095;DHT22;18096;48.142;16.290;2023-06-04T03:07:02;15.20;76.70
14095;DHT22;18096;48.142;16.290;2023-06-04T03:09:32;15.20;77.20
14095;DHT22;18096;48.142;16.290;2023-06-04T03:12:01;15.20;76.90
14095;DHT22;18096;48.142;16.290;2023-06-04T03:14:27;15.20;76.30
14095;DHT22;18096;48.142;16.290;2023-06-04T03:16:58;15.20;76.20
14095;DHT22;18096;48.142;16.290;2023-06-04T03:19:26;15.20;75.60
14095;DHT22;18096;48.142;16.290;2023-06-04T03:21:52;15.20;76.00
14095;DHT22;18096;48.142;16.290;2023-06-04T03:24:19;15.20;76.10
14095;DHT22;18096;48.142;16.290;2023-06-04T03:26:44;15.30;76.20
14095;DHT22;18096;48.142;16.290;2023-06-04T03:29:10;15.30;76.40
14095;DHT22;18096;48.142;16.290;2023-06-04T03:31:35;15.30;76.70
14095;DHT22;18096;48.142;16.290;2023-06-04T03:34:01;15.30;76.50
14095;DHT22;18096;48.142;16.290;2023-06-04T03:36:26;15.30;76.60
14095;DHT22;18096;48.142;16.290;2023-06-04T03:38:57;15.30;76.60
14095;DHT22;18096;48.142;16.290;2023-06-04T03:41:23;15.30;76.10
14095;DHT22;18096;48.142;16.290;2023-06-04T03:43:48;15.30;75.90
14095;DHT22;18096;48.142;16.290;2023-06-04T03:46:14;15.40;75.80
14095;DHT22;18096;48.142;16.290;2023-06-04T03:48:41;15.40;75.80
14095;DHT22;18096;48.142;16.290;2023-06-04T03:51:07;15.40;75.60
14095;DHT22;18096;48.142;16.290;2023-06-04T03:53:32;15.40;75.60
14095;DHT22;18096;48.142;16.290;2023-06-04T03:55:58;15.40;75.70
14095;DHT22;18096;48.142;16.290;2023-06-04T03:58:23;15.40;75.90
14095;DHT22;18096;48.142;16.290;2023-06-04T04:00:49;15.40;75.90
14095;DHT22;18096;48.142;16.290;2023-06-04T04:03:15;15.50;76.20
14095;DHT22;18096;48.142;16.290;2023-06-04T04:05:40;15.50;75.90
14095;DHT22;18096;48.142;16.290;2023-06-04T04:08:05;15.40;75.80
14095;DHT22;18096;48.142;16.290;2023-06-04T04:10:31;15.50;76.00
14095;DHT22;18096;48.142;16.290;2023-06-04T04:12:57;15.50;76.20
14095;DHT22;18096;48.142;16.290;2023-06-04T04:15:23;15.50;76.20
14095;DHT22;18096;48.142;16.290;2023-06-04T04:17:49;15.50;76.00
14095;DHT22;18096;48.142;16.290;2023-06-04T04:20:14;15.50;75.90
14095;DHT22;18096;48.142;16.290;2023-06-04T04:22:41;15.50;76.00
14095;DHT22;18096;48.142;16.290;2023-06-04T04:25:07;15.50;76.00
14095;DHT22;18096;48.142;16.290;2023-06-04T04:27:33;15.50;75.90
14095;DHT22;18096;48.142;16.290;2023-06-04T04:30:04;15.60;76.30
14095;DHT22;18096;48.142;16.290;2023-06-04T04:32:30;15.60;76.50
14095;DHT22;18096;48.142;16.290;2023-06-04T04:34:56;15.60;76.20
14095;DHT22;18096;48.142;16.290;2023-06-04T04:37:22;15.70;76.30
14095;DHT22;18096;48.142;16.290;2023-06-04T04:39:48;15.70;77.50
14095;DHT22;18096;48.142;16.290;2023-06-04T04:42:17;15.70;77.10
14095;DHT22;18096;48.142;16.290;2023-06-04T04:44:43;15.70;76.90
14095;DHT22;18096;48.142;16.290;2023-06-04T04:47:13;15.80;77.00
14095;DHT22;18096;48.142;16.290;2023-06-04T04:49:38;15.80;77.90
14095;DHT22;18096;48.142;16.290;2023-06-04T04:52:04;15.80;77.40
14095;DHT22;18096;48.142;16.290;2023-06-04T04:54:29;15.80;76.80
14095;DHT22;18096;48.142;16.290;2023-06-04T04:56:55;15.90;77.20
14095;DHT22;18096;48.142;16.290;2023-06-04T04:59:20;15.90;76.80
14095;DHT22;18096;48.142;16.290;2023-06-04T05:01:46;15.90;77.20
14095;DHT22;18096;48.142;16.290;2023-06-04T05:04:11;15.90;77.20
14095;DHT22;18096;48.142;16.290;2023-06-04T05:06:37;15.90;77.50
14095;DHT22;18096;48.142;16.290;2023-06-04T05:09:02;16.00;77.50
14095;DHT22;18096;48.142;16.290;2023-06-04T05:11:29;16.10;80.20
14095;DHT22;18096;48.142;16.290;2023-06-04T05:13:55;16.10;77.30
14095;DHT22;18096;48.142;16.290;2023-06-04T05:16:20;16.10;78.10
14095;DHT22;18096;48.142;16.290;2023-06-04T05:18:49;16.10;77.80
14095;DHT22;18096;48.142;16.290;2023-06-04T05:21:16;16.10;77.50
14095;DHT22;18096;48.142;16.290;2023-06-04T05:23:42;16.20;77.90
14095;DHT22;18096;48.142;16.290;2023-06-04T05:26:09;16.20;78.40
14095;DHT22;18096;48.142;16.290;2023-06-04T05:28:34;16.10;78.00
14095;DHT22;18096;48.142;16.290;2023-06-04T05:31:00;16.20;78.00
14095;DHT22;18096;48.142;16.290;2023-06-04T05:33:26;16.20;77.50
14095;DHT22;18096;48.142;16.290;2023-06-04T05:35:51;16.20;77.70
14095;DHT22;18096;48.142;16.290;2023-06-04T05:38:17;16.30;77.60
14095;DHT22;18096;48.142;16.290;2023-06-04T05:40:46;16.30;77.50
14095;DHT22;18096;48.142;16.290;2023-06-04T05:43:12;16.30;77.20
14095;DHT22;18096;48.142;16.290;2023-06-04T05:45:38;16.30;77.50
14095;DHT22;18096;48.142;16.290;2023-06-04T05:48:03;16.30;77.40
14095;DHT22;18096;48.142;16.290;2023-06-04T05:50:29;16.30;77.50
14095;DHT22;18096;48.142;16.290;2023-06-04T05:52:55;16.40;77.30
14095;DHT22;18096;48.142;16.290;2023-06-04T05:55:21;16.40;77.80
14095;DHT22;18096;48.142;16.290;2023-06-04T05:57:47;16.40;78.40
14095;DHT22;18096;48.142;16.290;2023-06-04T06:07:16;19.70;75.70
14095;DHT22;18096;48.142;16.290;2023-06-04T06:09:43;19.40;73.20
14095;DHT22;18096;48.142;16.290;2023-06-04T06:12:09;18.70;73.20
14095;DHT22;18096;48.142;16.290;2023-06-04T06:14:35;17.90;74.00
14095;DHT22;18096;48.142;16.290;2023-06-04T06:17:01;17.40;75.50
14095;DHT22;18096;48.142;16.290;2023-06-04T06:19:28;17.20;76.90
14095;DHT22;18096;48.142;16.290;2023-06-04T06:21:54;16.90;77.30
14095;DHT22;18096;48.142;16.290;2023-06-04T06:24:21;16.80;77.80
14095;DHT22;18096;48.142;16.290;2023-06-04T06:26:46;16.60;78.20
14095;DHT22;18096;48.142;16.290;2023-06-04T06:29:12;16.60;79.30
14095;DHT22;18096;48.142;16.290;2023-06-04T06:31:37;16.50;79.00
14095;DHT22;18096;48.142;16.290;2023-06-04T06:34:03;16.40;79.10
14095;DHT22;18096;48.142;16.290;2023-06-04T06:36:29;16.40;79.30
14095;DHT22;18096;48.142;16.290;2023-06-04T06:38:55;16.40;79.30
14095;DHT22;18096;48.142;16.290;2023-06-04T06:41:21;16.40;80.20
14095;DHT22;18096;48.142;16.290;2023-06-04T06:43:46;16.40;80.00
14095;DHT22;18096;48.142;16.290;2023-06-04T06:46:12;16.40;79.60
14095;DHT22;18096;48.142;16.290;2023-06-04T06:48:38;16.40;79.60
14095;DHT22;18096;48.142;16.290;2023-06-04T06:51:03;16.40;79.50
14095;DHT22;18096;48.142;16.290;2023-06-04T06:53:29;16.30;79.50
14095;DHT22;18096;48.142;16.290;2023-06-04T06:55:55;16.30;79.60
14095;DHT22;18096;48.142;16.290;2023-06-04T06:58:21;16.30;79.90
14095;DHT22;18096;48.142;16.290;2023-06-04T07:00:48;16.40;80.00
14095;DHT22;18096;48.142;16.290;2023-06-04T07:03:14;16.40;79.90
14095;DHT22;18096;48.142;16.290;2023-06-04T07:05:40;16.40;80.30
14095;DHT22;18096;48.142;16.290;2023-06-04T07:08:06;16.40;80.30
14095;DHT22;18096;48.142;16.290;2023-06-04T07:10:31;16.50;80.40
14095;DHT22;18096;48.142;16.290;2023-06-04T07:12:57;16.50;80.50
14095;DHT22;18096;48.142;16.290;2023-06-04T07:15:23;16.60;82.80
14095;DHT22;18096;48.142;16.290;2023-06-04T07:17:48;16.70;80.60
14095;DHT22;18096;48.142;16.290;2023-06-04T07:20:14;16.80;80.40
14095;DHT22;18096;48.142;16.290;2023-06-04T07:22:40;16.80;80.20
14095;DHT22;18096;48.142;16.290;2023-06-04T07:25:06;16.80;79.70
14095;DHT22;18096;48.142;16.290;2023-06-04T07:27:33;16.90;81.30
14095;DHT22;18096;48.142;16.290;2023-06-04T07:29:59;17.00;81.60
14095;DHT22;18096;48.142;16.290;2023-06-04T07:32:24;17.00;80.20
14095;DHT22;18096;48.142;16.290;2023-06-04T07:34:50;17.10;82.50
14095;DHT22;18096;48.142;16.290;2023-06-04T07:37:15;17.20;80.90
14095;DHT22;18096;48.142;16.290;2023-06-04T07:39:41;17.30;80.80
14095;DHT22;18096;48.142;16.290;2023-06-04T07:42:07;17.30;79.00
14095;DHT22;18096;48.142;16.290;2023-06-04T07:44:33;17.40;79.30
14095;DHT22;18096;48.142;16.290;2023-06-04T07:46:59;17.30;78.90
14095;DHT22;18096;48.142;16.290;2023-06-04T07:49:24;17.20;79.00
14095;DHT22;18096;48.142;16.290;2023-06-04T07:51:50;17.10;79.20
14095;DHT22;18096;48.142;16.290;2023-06-04T07:54:16;17.20;80.40
14095;DHT22;18096;48.142;16.290;2023-06-04T07:56:42;17.20;80.00
14095;DHT22;18096;48.142;16.290;2023-06-04T07:59:07;17.30;80.10
14095;DHT22;18096;48.142;16.290;2023-06-04T08:01:33;17.40;82.00
14095;DHT22;18096;48.142;16.290;2023-06-04T08:03:59;17.50;80.00
14095;DHT22;18096;48.142;16.290;2023-06-04T08:06:25;17.60;80.10
14095;DHT22;18096;48.142;16.290;2023-06-04T08:08:52;17.60;80.70
14095;DHT22;18096;48.142;16.290;2023-06-04T08:11:17;17.70;80.30
14095;DHT22;18096;48.142;16.290;2023-06-04T08:13:43;17.70;79.50
14095;DHT22;18096;48.142;16.290;2023-06-04T08:16:09;17.60;80.10
14095;DHT22;18096;48.142;16.290;2023-06-04T08:18:38;17.70;80.70
14095;DHT22;18096;48.142;16.290;2023-06-04T08:21:05;17.80;80.60
14095;DHT22;18096;48.142;16.290;2023-06-04T08:23:31;17.80;80.30
14095;DHT22;18096;48.142;16.290;2023-06-04T08:25:57;17.70;79.60
14095;DHT22;18096;48.142;16.290;2023-06-04T08:28:24;17.50;80.00
14095;DHT22;18096;48.142;16.290;2023-06-04T08:30:50;17.50;81.10
14095;DHT22;18096;48.142;16.290;2023-06-04T08:33:16;17.50;81.40
14095;DHT22;18096;48.142;16.290;2023-06-04T08:35:41;17.50;82.10
14095;DHT22;18096;48.142;16.290;2023-06-04T08:38:07;17.60;82.40
14095;DHT22;18096;48.142;16.290;2023-06-04T08:40:33;17.60;81.70
14095;DHT22;18096;48.142;16.290;2023-06-04T08:43:01;17.60;81.50
14095;DHT22;18096;48.142;16.290;2023-06-04T08:45:26;17.60;81.90
14095;DHT22;18096;48.142;16.290;2023-06-04T08:47:54;17.60;81.80
14095;DHT22;18096;48.142;16.290;2023-06-04T08:50:23;17.60;81.60
14095;DHT22;18096;48.142;16.290;2023-06-04T08:52:53;17.60;82.10
14095;DHT22;18096;48.142;16.290;2023-06-04T08:55:22;17.60;82.10
14095;DHT22;18096;48.142;16.290;2023-06-04T08:57:51;17.70;82.00
14095;DHT22;18096;48.142;16.290;2023-06-04T09:00:17;17.70;81.80
14095;DHT22;18096;48.142;16.290;2023-06-04T09:02:44;17.60;82.20
14095;DHT22;18096;48.142;16.290;2023-06-04T09:05:10;17.70;82.50
14095;DHT22;18096;48.142;16.290;2023-06-04T09:07:45;17.70;82.40
14095;DHT22;18096;48.142;16.290;2023-06-04T09:10:13;17.90;82.60
14095;DHT22;18096;48.142;16.290;2023-06-04T09:12:43;17.90;81.80
14095;DHT22;18096;48.142;16.290;2023-06-04T09:15:12;18.00;82.00
14095;DHT22;18096;48.142;16.290;2023-06-04T09:17:38;18.00;83.00
14095;DHT22;18096;48.142;16.290;2023-06-04T09:20:03;18.20;82.50
14095;DHT22;18096;48.142;16.290;2023-06-04T09:22:34;18.30;85.20
14095;DHT22;18096;48.142;16.290;2023-06-04T09:25:01;18.60;82.70
14095;DHT22;18096;48.142;16.290;2023-06-04T09:27:27;18.80;82.00
14095;DHT22;18096;48.142;16.290;2023-06-04T09:30:02;18.90;81.80
14095;DHT22;18096;48.142;16.290;2023-06-04T09:32:29;18.90;83.80
14095;DHT22;18096;48.142;16.290;2023-06-04T09:35:14;19.30;82.70
14095;DHT22;18096;48.142;16.290;2023-06-04T09:37:41;19.50;82.60
14095;DHT22;18096;48.142;16.290;2023-06-04T09:40:07;19.70;82.90
14095;DHT22;18096;48.142;16.290;2023-06-04T09:42:50;19.80;81.90
14095;DHT22;18096;48.142;16.290;2023-06-04T09:45:29;19.80;80.80
14095;DHT22;18096;48.142;16.290;2023-06-04T09:47:55;19.70;81.90
14095;DHT22;18096;48.142;16.290;2023-06-04T09:50:30;19.70;80.20
14095;DHT22;18096;48.142;16.290;2023-06-04T09:52:56;19.60;80.80
14095;DHT22;18096;48.142;16.290;2023-06-04T09:55:22;19.60;80.70
14095;DHT22;18096;48.142;16.290;2023-06-04T09:57:52;19.50;80.90
14095;DHT22;18096;48.142;16.290;2023-06-04T10:00:20;19.50;81.20
14095;DHT22;18096;48.142;16.290;2023-06-04T10:02:50;19.50;81.00
14095;DHT22;18096;48.142;16.290;2023-06-04T10:05:17;19.60;81.30
14095;DHT22;18096;48.142;16.290;2023-06-04T10:07:47;19.60;80.80
14095;DHT22;18096;48.142;16.290;2023-06-04T10:10:19;19.50;80.90
14095;DHT22;18096;48.142;16.290;2023-06-04T10:12:50;19.60;82.30
14095;DHT22;18096;48.142;16.290;2023-06-04T10:15:17;19.70;81.80
14095;DHT22;18096;48.142;16.290;2023-06-04T10:17:43;19.70;81.10
14095;DHT22;18096;48.142;16.290;2023-06-04T10:20:10;19.60;80.40
14095;DHT22;18096;48.142;16.290;2023-06-04T10:22:37;19.60;82.20
14095;DHT22;18096;48.142;16.290;2023-06-04T10:25:03;19.70;82.20
14095;DHT22;18096;48.142;16.290;2023-06-04T10:27:30;19.70;81.10
14095;DHT22;18096;48.142;16.290;2023-06-04T10:29:57;19.80;81.20
14095;DHT22;18096;48.142;16.290;2023-06-04T10:32:27;19.80;80.80
14095;DHT22;18096;48.142;16.290;2023-06-04T10:34:54;19.80;80.00
14095;DHT22;18096;48.142;16.290;2023-06-04T10:37:28;19.70;80.20
14095;DHT22;18096;48.142;16.290;2023-06-04T10:39:56;19.70;80.20
14095;DHT22;18096;48.142;16.290;2023-06-04T10:42:23;19.80;78.80
14095;DHT22;18096;48.142;16.290;2023-06-04T10:44:53;19.70;78.80
14095;DHT22;18096;48.142;16.290;2023-06-04T10:47:24;19.70;79.20
14095;DHT22;18096;48.142;16.290;2023-06-04T10:49:51;19.60;78.60
14095;DHT22;18096;48.142;16.290;2023-06-04T10:52:17;19.60;79.50
14095;DHT22;18096;48.142;16.290;2023-06-04T10:54:46;19.70;79.30
14095;DHT22;18096;48.142;16.290;2023-06-04T10:57:18;19.70;78.70
14095;DHT22;18096;48.142;16.290;2023-06-04T10:59:57;19.80;79.40
14095;DHT22;18096;48.142;16.290;2023-06-04T11:02:23;19.90;78.80
14095;DHT22;18096;48.142;16.290;2023-06-04T11:05:05;19.90;79.10
14095;DHT22;18096;48.142;16.290;2023-06-04T11:08:01;20.00;78.80
14095;DHT22;18096;48.142;16.290;2023-06-04T11:10:38;20.00;78.60
14095;DHT22;18096;48.142;16.290;2023-06-04T11:13:04;20.00;78.20
14095;DHT22;18096;48.142;16.290;2023-06-04T11:15:43;20.00;78.40
14095;DHT22;18096;48.142;16.290;2023-06-04T11:18:17;20.00;79.10
14095;DHT22;18096;48.142;16.290;2023-06-04T11:20:48;20.10;78.40
14095;DHT22;18096;48.142;16.290;2023-06-04T11:23:15;20.10;77.60
14095;DHT22;18096;48.142;16.290;2023-06-04T11:25:42;20.00;77.60
14095;DHT22;18096;48.142;16.290;2023-06-04T11:28:13;19.90;77.50
14095;DHT22;18096;48.142;16.290;2023-06-04T11:30:39;19.90;77.90
14095;DHT22;18096;48.142;16.290;2023-06-04T11:33:05;19.90;78.00
14095;DHT22;18096;48.142;16.290;2023-06-04T11:35:40;19.90;77.60
14095;DHT22;18096;48.142;16.290;2023-06-04T11:38:06;19.90;77.60
14095;DHT22;18096;48.142;16.290;2023-06-04T11:40:31;20.00;78.20
14095;DHT22;18096;48.142;16.290;2023-06-04T11:42:57;20.00;77.80
14095;DHT22;18096;48.142;16.290;2023-06-04T11:45:23;20.10;77.60
14095;DHT22;18096;48.142;16.290;2023-06-04T11:47:53;20.00;77.40
14095;DHT22;18096;48.142;16.290;2023-06-04T11:50:21;20.00;77.20
14095;DHT22;18096;48.142;16.290;2023-06-04T11:52:48;20.10;77.90
14095;DHT22;18096;48.142;16.290;2023-06-04T11:55:14;20.10;77.90
14095;DHT22;18096;48.142;16.290;2023-06-04T11:57:43;20.30;77.90
14095;DHT22;18096;48.142;16.290;2023-06-04T12:00:09;20.40;77.50
14095;DHT22;18096;48.142;16.290;2023-06-04T12:02:54;20.50;77.40
14095;DHT22;18096;48.142;16.290;2023-06-04T12:05:28;20.50;76.30
14095;DHT22;18096;48.142;16.290;2023-06-04T12:08:04;20.50;76.00
14095;DHT22;18096;48.142;16.290;2023-06-04T12:10:37;20.40;76.50
14095;DHT22;18096;48.142;16.290;2023-06-04T12:13:02;20.50;77.30
14095;DHT22;18096;48.142;16.290;2023-06-04T12:15:28;20.50;76.60
14095;DHT22;18096;48.142;16.290;2023-06-04T12:17:54;20.40;76.50
14095;DHT22;18096;48.142;16.290;2023-06-04T12:20:36;20.40;76.80
14095;DHT22;18096;48.142;16.290;2023-06-04T12:23:03;20.50;77.00
14095;DHT22;18096;48.142;16.290;2023-06-04T12:25:30;20.50;76.30
14095;DHT22;18096;48.142;16.290;2023-06-04T12:27:56;20.50;76.50
14095;DHT22;18096;48.142;16.290;2023-06-04T12:30:22;20.50;76.50
14095;DHT22;18096;48.142;16.290;2023-06-04T12:32:48;20.50;77.10
14095;DHT22;18096;48.142;16.290;2023-06-04T12:35:14;20.60;77.90
14095;DHT22;18096;48.142;16.290;2023-06-04T12:37:43;20.60;76.80
14095;DHT22;18096;48.142;16.290;2023-06-04T12:40:08;20.60;76.20
14095;DHT22;18096;48.142;16.290;2023-06-04T12:42:34;20.60;76.20
14095;DHT22;18096;48.142;16.290;2023-06-04T12:45:00;20.60;76.30
14095;DHT22;18096;48.142;16.290;2023-06-04T12:47:26;20.60;76.60
14095;DHT22;18096;48.142;16.290;2023-06-04T12:49:52;20.50;76.70
14095;DHT22;18096;48.142;16.290;2023-06-04T12:52:18;20.50;77.10
14095;DHT22;18096;48.142;16.290;2023-06-04T12:54:43;20.50;77.00
14095;DHT22;18096;48.142;16.290;2023-06-04T12:57:09;20.50;77.40
14095;DHT22;18096;48.142;16.290;2023-06-04T12:59:35;20.40;77.20
14095;DHT22;18096;48.142;16.290;2023-06-04T13:02:00;20.40;77.60
14095;DHT22;18096;48.142;16.290;2023-06-04T13:04:26;20.40;77.80
14095;DHT22;18096;48.142;16.290;2023-06-04T13:06:52;20.40;78.50
14095;DHT22;18096;48.142;16.290;2023-06-04T13:09:21;20.40;79.00
14095;DHT22;18096;48.142;16.290;2023-06-04T13:11:48;20.50;79.20
14095;DHT22;18096;48.142;16.290;2023-06-04T13:14:14;20.50;78.60
14095;DHT22;18096;48.142;16.290;2023-06-04T13:16:40;20.60;79.00
14095;DHT22;18096;48.142;16.290;2023-06-04T13:19:06;20.60;79.40
14095;DHT22;18096;48.142;16.290;2023-06-04T13:21:32;20.60;79.30
14095;DHT22;18096;48.142;16.290;2023-06-04T13:23:58;20.70;79.30
14095;DHT22;18096;48.142;16.290;2023-06-04T13:26:24;20.60;79.00
14095;DHT22;18096;48.142;16.290;2023-06-04T13:28:50;20.60;79.00
14095;DHT22;18096;48.142;16.290;2023-06-04T13:31:16;20.50;78.90
14095;DHT22;18096;48.142;16.290;2023-06-04T13:33:42;20.50;79.40
14095;DHT22;18096;48.142;16.290;2023-06-04T13:36:08;20.50;79.70
14095;DHT22;18096;48.142;16.290;2023-06-04T13:38:34;20.50;79.60
14095;DHT22;18096;48.142;16.290;2023-06-04T13:41:00;20.50;79.50
14095;DHT22;18096;48.142;16.290;2023-06-04T13:43:25;20.50;79.70
14095;DHT22;18096;48.142;16.290;2023-06-04T13:45:51;20.50;80.00
14095;DHT22;18096;48.142;16.290;2023-06-04T13:48:17;20.50;80.00
14095;DHT22;18096;48.142;16.290;2023-06-04T13:50:43;20.50;79.90
14095;DHT22;18096;48.142;16.290;2023-06-04T13:53:09;20.50;79.90
14095;DHT22;18096;48.142;16.290;2023-06-04T13:55:34;20.50;80.10
14095;DHT22;18096;48.142;16.290;2023-06-04T13:58:00;20.50;79.90
14095;DHT22;18096;48.142;16.290;2023-06-04T14:00:26;20.60;80.40
14095;DHT22;18096;48.142;16.290;2023-06-04T14:02:52;20.60;80.20
14095;DHT22;18096;48.142;16.290;2023-06-04T14:05:20;20.60;79.60
14095;DHT22;18096;48.142;16.290;2023-06-04T14:07:46;20.60;79.60
14095;DHT22;18096;48.142;16.290;2023-06-04T14:10:12;20.60;78.60
14095;DHT22;18096;48.142;16.290;2023-06-04T14:12:39;20.50;78.70
14095;DHT22;18096;48.142;16.290;2023-06-04T14:15:06;20.50;78.70
14095;DHT22;18096;48.142;16.290;2023-06-04T14:17:33;20.60;79.30
14095;DHT22;18096;48.142;16.290;2023-06-04T14:20:00;20.60;78.90
14095;DHT22;18096;48.142;16.290;2023-06-04T14:22:26;20.70;78.00
14095;DHT22;18096;48.142;16.290;2023-06-04T14:24:51;20.70;77.30
14095;DHT22;18096;48.142;16.290;2023-06-04T14:27:17;20.60;77.30
14095;DHT22;18096;48.142;16.290;2023-06-04T14:29:42;20.60;77.60
14095;DHT22;18096;48.142;16.290;2023-06-04T14:32:08;20.50;77.70
14095;DHT22;18096;48.142;16.290;2023-06-04T14:34:34;20.50;78.40
14095;DHT22;18096;48.142;16.290;2023-06-04T14:37:00;20.50;79.20
14095;DHT22;18096;48.142;16.290;2023-06-04T14:39:27;20.50;79.70
14095;DHT22;18096;48.142;16.290;2023-06-04T14:41:53;20.50;79.80
14095;DHT22;18096;48.142;16.290;2023-06-04T14:44:19;20.50;79.60
14095;DHT22;18096;48.142;16.290;2023-06-04T14:46:45;20.50;79.40
14095;DHT22;18096;48.142;16.290;2023-06-04T14:49:11;20.50;79.50
14095;DHT22;18096;48.142;16.290;2023-06-04T14:51:37;20.40;79.40
14095;DHT22;18096;48.142;16.290;2023-06-04T14:54:02;20.40;79.50
14095;DHT22;18096;48.142;16.290;2023-06-04T14:56:28;20.40;80.10
14095;DHT22;18096;48.142;16.290;2023-06-04T14:58:56;20.40;80.20
14095;DHT22;18096;48.142;16.290;2023-06-04T15:01:22;20.50;80.30
14095;DHT22;18096;48.142;16.290;2023-06-04T15:03:50;20.40;80.30
14095;DHT22;18096;48.142;16.290;2023-06-04T15:06:16;20.30;80.40
14095;DHT22;18096;48.142;16.290;2023-06-04T15:08:42;20.20;80.80
14095;DHT22;18096;48.142;16.290;2023-06-04T15:11:10;20.20;80.90
14095;DHT22;18096;48.142;16.290;2023-06-04T15:13:36;20.10;80.70
14095;DHT22;18096;48.142;16.290;2023-06-04T15:16:02;20.10;81.50
14095;DHT22;18096;48.142;16.290;2023-06-04T15:18:28;20.00;81.80
14095;DHT22;18096;48.142;16.290;2023-06-04T15:20:54;20.10;82.30
14095;DHT22;18096;48.142;16.290;2023-06-04T15:23:19;20.10;82.40